sensor_id;sensor_type;location;lat;lon;timestamp;P1;durP1;ratioP1;P2;durP2;ratioP2
12155;SDS011;6141;49.092;8.516;2023-06-22T00:00:35;5.87;;;4.53;;
12155;SDS011;6141;49.092;8.516;2023-06-22T00:03:03;4.67;;;4.27;;
12155;SDS011;6141;49.092;8.516;2023-06-22T00:05:31;5.20;;;4.63;;
12155;SDS011;6141;49.092;8.516;2023-06-22T00:08:02;4.87;;;4.27;;
12155;SDS011;6141;49.092;8.516;2023-06-22T00:10:31;5.20;;;4.70;;
12155;SDS011;6141;49.092;8.516;2023-06-22T00:12:59;5.03;;;4.53;;
12155;SDS011;6141;49.092;8.516;2023-06-22T00:15:27;5.13;;;4.50;;
12155;SDS011;6141;49.092;8.516;2023-06-22T00:17:56;5.67;;;5.07;;
12155;SDS011;6141;49.092;8.516;2023-06-22T00:20:25;5.07;;;4.63;;
12155;SDS011;6141;49.092;8.516;2023-06-22T00:22:56;4.90;;;4.37;;
12155;SDS011;6141;49.092;8.516;2023-06-22T00:25:26;6.20;;;4.30;;
12155;SDS011;6141;49.092;8.516;2023-06-22T00:27:54;4.90;;;4.47;;
12155;SDS011;6141;49.092;8.516;2023-06-22T00:30:22;7.47;;;4.77;;
12155;SDS011;6141;49.092;8.516;2023-06-22T00:32:50;5.20;;;4.70;;
12155;SDS011;6141;49.092;8.516;2023-06-22T00:35:18;5.27;;;4.80;;
12155;SDS011;6141;49.092;8.516;2023-06-22T00:37:46;8.00;;;5.13;;
12155;SDS011;6141;49.092;8.516;2023-06-22T00:40:14;5.97;;;5.33;;
12155;SDS011;6141;49.092;8.516;2023-06-22T00:42:49;5.43;;;4.80;;
12155;SDS011;6141;49.092;8.516;2023-06-22T00:45:17;12.17;;;6.67;;
12155;SDS011;6141;49.092;8.516;2023-06-22T00:47:46;10.23;;;5.73;;
12155;SDS011;6141;49.092;8.516;2023-06-22T00:50:16;6.50;;;5.83;;
12155;SDS011;6141;49.092;8.516;2023-06-22T00:52:48;9.90;;;6.17;;
12155;SDS011;6141;49.092;8.516;2023-06-22T00:55:19;7.70;;;5.87;;
12155;SDS011;6141;49.092;8.516;2023-06-22T00:57:49;9.73;;;5.97;;
12155;SDS011;6141;49.092;8.516;2023-06-22T01:00:22;9.27;;;6.30;;
12155;SDS011;6141;49.092;8.516;2023-06-22T01:02:53;8.67;;;6.73;;
12155;SDS011;6141;49.092;8.516;2023-06-22T01:05:24;8.27;;;6.27;;
12155;SDS011;6141;49.092;8.516;2023-06-22T01:07:59;9.83;;;6.97;;
12155;SDS011;6141;49.092;8.516;2023-06-22T01:10:35;10.37;;;6.57;;
12155;SDS011;6141;49.092;8.516;2023-06-22T01:13:12;7.37;;;5.90;;
12155;SDS011;6141;49.092;8.516;2023-06-22T01:15:48;8.50;;;5.97;;
12155;SDS011;6141;49.092;8.516;2023-06-22T01:18:21;7.43;;;5.97;;
12155;SDS011;6141;49.092;8.516;2023-06-22T01:20:52;10.37;;;6.50;;
12155;SDS011;6141;49.092;8.516;2023-06-22T01:23:26;8.63;;;5.80;;
12155;SDS011;6141;49.092;8.516;2023-06-22T01:26:03;6.70;;;5.83;;
12155;SDS011;6141;49.092;8.516;2023-06-22T01:28:40;7.80;;;6.00;;
12155;SDS011;6141;49.092;8.516;2023-06-22T01:31:14;8.17;;;6.53;;
12155;SDS011;6141;49.092;8.516;2023-06-22T01:33:45;9.87;;;6.43;;
12155;SDS011;6141;49.092;8.516;2023-06-22T01:36:17;7.23;;;5.50;;
12155;SDS011;6141;49.092;8.516;2023-06-22T01:38:46;7.73;;;5.87;;
12155;SDS011;6141;49.092;8.516;2023-06-22T01:41:17;9.50;;;6.40;;
12155;SDS011;6141;49.092;8.516;2023-06-22T01:43:48;8.57;;;6.57;;
12155;SDS011;6141;49.092;8.516;2023-06-22T01:46:19;9.70;;;6.20;;
12155;SDS011;6141;49.092;8.516;2023-06-22T01:48:48;10.43;;;6.57;;
12155;SDS011;6141;49.092;8.516;2023-06-22T01:51:17;8.00;;;6.27;;
12155;SDS011;6141;49.092;8.516;2023-06-22T01:53:45;8.13;;;6.43;;
12155;SDS011;6141;49.092;8.516;2023-06-22T01:56:15;7.33;;;6.20;;
12155;SDS011;6141;49.092;8.516;2023-06-22T01:58:46;9.00;;;6.77;;
12155;SDS011;6141;49.092;8.516;2023-06-22T02:01:22;9.70;;;6.70;;
12155;SDS011;6141;49.092;8.516;2023-06-22T02:03:58;7.27;;;6.57;;
12155;SDS011;6141;49.092;8.516;2023-06-22T02:06:32;9.73;;;7.47;;
12155;SDS011;6141;49.092;8.516;2023-06-22T02:09:06;9.30;;;5.90;;
12155;SDS011;6141;49.092;8.516;2023-06-22T02:11:45;7.77;;;6.20;;
12155;SDS011;6141;49.092;8.516;2023-06-22T02:14:16;8.10;;;6.50;;
12155;SDS011;6141;49.092;8.516;2023-06-22T02:16:47;9.67;;;6.27;;
12155;SDS011;6141;49.092;8.516;2023-06-22T02:19:22;6.83;;;6.23;;
12155;SDS011;6141;49.092;8.516;2023-06-22T02:21:52;7.53;;;6.87;;
12155;SDS011;6141;49.092;8.516;2023-06-22T02:24:22;7.93;;;6.63;;
12155;SDS011;6141;49.092;8.516;2023-06-22T02:26:51;8.80;;;7.07;;
12155;SDS011;6141;49.092;8.516;2023-06-22T02:29:20;7.60;;;6.70;;
12155;SDS011;6141;49.092;8.516;2023-06-22T02:31:49;7.67;;;6.63;;
12155;SDS011;6141;49.092;8.516;2023-06-22T02:34:18;10.10;;;6.93;;
12155;SDS011;6141;49.092;8.516;2023-06-22T02:36:47;7.03;;;6.33;;
12155;SDS011;6141;49.092;8.516;2023-06-22T02:39:19;9.17;;;6.27;;
12155;SDS011;6141;49.092;8.516;2023-06-22T02:41:49;6.47;;;5.90;;
12155;SDS011;6141;49.092;8.516;2023-06-22T02:44:18;7.27;;;6.53;;
12155;SDS011;6141;49.092;8.516;2023-06-22T02:46:49;7.43;;;5.93;;
12155;SDS011;6141;49.092;8.516;2023-06-22T02:49:18;7.37;;;6.07;;
12155;SDS011;6141;49.092;8.516;2023-06-22T02:51:47;7.40;;;6.20;;
12155;SDS011;6141;49.092;8.516;2023-06-22T02:54:18;7.00;;;6.03;;
12155;SDS011;6141;49.092;8.516;2023-06-22T02:56:49;6.80;;;6.10;;
12155;SDS011;6141;49.092;8.516;2023-06-22T02:59:18;7.17;;;6.47;;
12155;SDS011;6141;49.092;8.516;2023-06-22T03:01:53;7.20;;;6.50;;
12155;SDS011;6141;49.092;8.516;2023-06-22T03:04:25;9.23;;;6.07;;
12155;SDS011;6141;49.092;8.516;2023-06-22T03:06:53;8.30;;;6.57;;
12155;SDS011;6141;49.092;8.516;2023-06-22T03:09:21;6.40;;;5.80;;
12155;SDS011;6141;49.092;8.516;2023-06-22T03:11:50;7.20;;;6.33;;
12155;SDS011;6141;49.092;8.516;2023-06-22T03:14:19;7.10;;;6.40;;
12155;SDS011;6141;49.092;8.516;2023-06-22T03:16:47;6.67;;;5.97;;
12155;SDS011;6141;49.092;8.516;2023-06-22T03:19:20;7.30;;;6.60;;
12155;SDS011;6141;49.092;8.516;2023-06-22T03:21:49;7.20;;;5.83;;
12155;SDS011;6141;49.092;8.516;2023-06-22T03:24:17;9.70;;;6.67;;
12155;SDS011;6141;49.092;8.516;2023-06-22T03:26:45;7.27;;;6.50;;
12155;SDS011;6141;49.092;8.516;2023-06-22T03:29:13;7.53;;;6.40;;
12155;SDS011;6141;49.092;8.516;2023-06-22T03:31:44;7.70;;;6.57;;
12155;SDS011;6141;49.092;8.516;2023-06-22T03:34:13;7.53;;;6.17;;
12155;SDS011;6141;49.092;8.516;2023-06-22T03:36:43;7.53;;;6.67;;
12155;SDS011;6141;49.092;8.516;2023-06-22T03:39:12;7.00;;;6.40;;
12155;SDS011;6141;49.092;8.516;2023-06-22T03:41:40;7.40;;;6.70;;
12155;SDS011;6141;49.092;8.516;2023-06-22T03:44:08;7.93;;;7.13;;
12155;SDS011;6141;49.092;8.516;2023-06-22T03:46:38;10.30;;;7.10;;
12155;SDS011;6141;49.092;8.516;2023-06-22T03:49:06;8.87;;;8.07;;
12155;SDS011;6141;49.092;8.516;2023-06-22T03:51:35;7.53;;;6.20;;
12155;SDS011;6141;49.092;8.516;2023-06-22T03:54:04;8.30;;;6.67;;
12155;SDS011;6141;49.092;8.516;2023-06-22T03:56:33;8.03;;;6.53;;
12155;SDS011;6141;49.092;8.516;2023-06-22T03:59:01;8.77;;;5.80;;
12155;SDS011;6141;49.092;8.516;2023-06-22T04:01:29;9.40;;;7.30;;
12155;SDS011;6141;49.092;8.516;2023-06-22T04:03:57;7.37;;;6.67;;
12155;SDS011;6141;49.092;8.516;2023-06-22T04:06:25;6.93;;;6.23;;
12155;SDS011;6141;49.092;8.516;2023-06-22T04:08:53;10.20;;;7.17;;
12155;SDS011;6141;49.092;8.516;2023-06-22T04:11:22;7.97;;;6.30;;
12155;SDS011;6141;49.092;8.516;2023-06-22T04:13:51;8.87;;;7.00;;
12155;SDS011;6141;49.092;8.516;2023-06-22T04:16:19;8.33;;;6.80;;
12155;SDS011;6141;49.092;8.516;2023-06-22T04:18:47;9.93;;;7.37;;
12155;SDS011;6141;49.092;8.516;2023-06-22T04:21:15;11.27;;;7.27;;
12155;SDS011;6141;49.092;8.516;2023-06-22T04:23:46;9.47;;;7.43;;
12155;SDS011;6141;49.092;8.516;2023-06-22T04:26:14;9.13;;;6.70;;
12155;SDS011;6141;49.092;8.516;2023-06-22T04:28:43;8.53;;;7.07;;
12155;SDS011;6141;49.092;8.516;2023-06-22T04:31:19;9.10;;;7.50;;
12155;SDS011;6141;49.092;8.516;2023-06-22T04:33:48;9.27;;;6.73;;
12155;SDS011;6141;49.092;8.516;2023-06-22T04:36:17;7.10;;;6.37;;
12155;SDS011;6141;49.092;8.516;2023-06-22T04:38:50;8.03;;;7.23;;
12155;SDS011;6141;49.092;8.516;2023-06-22T04:41:19;11.17;;;7.70;;
12155;SDS011;6141;49.092;8.516;2023-06-22T04:43:52;9.00;;;7.37;;
12155;SDS011;6141;49.092;8.516;2023-06-22T04:46:20;9.37;;;7.57;;
12155;SDS011;6141;49.092;8.516;2023-06-22T04:48:48;9.33;;;7.63;;
12155;SDS011;6141;49.092;8.516;2023-06-22T04:51:16;7.70;;;7.00;;
12155;SDS011;6141;49.092;8.516;2023-06-22T04:53:52;8.33;;;7.60;;
12155;SDS011;6141;49.092;8.516;2023-06-22T04:56:27;8.17;;;7.17;;
12155;SDS011;6141;49.092;8.516;2023-06-22T04:58:57;8.47;;;7.20;;
12155;SDS011;6141;49.092;8.516;2023-06-22T05:01:25;9.40;;;7.60;;
12155;SDS011;6141;49.092;8.516;2023-06-22T05:03:53;9.07;;;7.47;;
12155;SDS011;6141;49.092;8.516;2023-06-22T05:06:23;11.50;;;7.57;;
12155;SDS011;6141;49.092;8.516;2023-06-22T05:08:52;7.97;;;7.00;;
12155;SDS011;6141;49.092;8.516;2023-06-22T05:11:24;10.37;;;7.97;;
12155;SDS011;6141;49.092;8.516;2023-06-22T05:13:52;9.17;;;8.00;;
12155;SDS011;6141;49.092;8.516;2023-06-22T05:16:22;8.17;;;7.30;;
12155;SDS011;6141;49.092;8.516;2023-06-22T05:18:51;9.53;;;7.67;;
12155;SDS011;6141;49.092;8.516;2023-06-22T05:21:21;11.30;;;7.47;;
12155;SDS011;6141;49.092;8.516;2023-06-22T05:23:50;8.87;;;7.67;;
12155;SDS011;6141;49.092;8.516;2023-06-22T05:26:19;8.50;;;7.20;;
12155;SDS011;6141;49.092;8.516;2023-06-22T05:28:47;8.30;;;7.50;;
12155;SDS011;6141;49.092;8.516;2023-06-22T05:31:16;11.63;;;8.40;;
12155;SDS011;6141;49.092;8.516;2023-06-22T05:33:48;8.57;;;7.03;;
12155;SDS011;6141;49.092;8.516;2023-06-22T05:36:19;8.57;;;7.40;;
12155;SDS011;6141;49.092;8.516;2023-06-22T05:38:47;10.00;;;8.30;;
12155;SDS011;6141;49.092;8.516;2023-06-22T05:41:15;11.33;;;8.17;;
12155;SDS011;6141;49.092;8.516;2023-06-22T05:43:44;11.37;;;7.30;;
12155;SDS011;6141;49.092;8.516;2023-06-22T05:46:11;9.43;;;7.80;;
12155;SDS011;6141;49.092;8.516;2023-06-22T05:48:39;8.67;;;7.40;;
12155;SDS011;6141;49.092;8.516;2023-06-22T05:51:09;8.83;;;8.03;;
12155;SDS011;6141;49.092;8.516;2023-06-22T05:53:39;8.70;;;7.80;;
12155;SDS011;6141;49.092;8.516;2023-06-22T05:56:07;11.47;;;7.50;;
12155;SDS011;6141;49.092;8.516;2023-06-22T05:58:35;9.50;;;7.23;;
12155;SDS011;6141;49.092;8.516;2023-06-22T06:01:03;8.83;;;7.93;;
12155;SDS011;6141;49.092;8.516;2023-06-22T06:03:31;8.77;;;7.37;;
12155;SDS011;6141;49.092;8.516;2023-06-22T06:05:59;10.03;;;6.80;;
12155;SDS011;6141;49.092;8.516;2023-06-22T06:08:30;8.50;;;6.97;;
12155;SDS011;6141;49.092;8.516;2023-06-22T06:11:00;12.27;;;8.07;;
12155;SDS011;6141;49.092;8.516;2023-06-22T06:13:28;13.63;;;8.10;;
12155;SDS011;6141;49.092;8.516;2023-06-22T06:15:56;9.17;;;7.43;;
12155;SDS011;6141;49.092;8.516;2023-06-22T06:18:25;7.83;;;7.13;;
12155;SDS011;6141;49.092;8.516;2023-06-22T06:20:53;8.87;;;7.30;;
12155;SDS011;6141;49.092;8.516;2023-06-22T06:23:21;11.30;;;7.47;;
12155;SDS011;6141;49.092;8.516;2023-06-22T06:25:51;9.10;;;7.60;;
12155;SDS011;6141;49.092;8.516;2023-06-22T06:28:19;11.43;;;7.53;;
12155;SDS011;6141;49.092;8.516;2023-06-22T06:30:47;10.30;;;7.93;;
12155;SDS011;6141;49.092;8.516;2023-06-22T06:33:15;9.57;;;7.40;;
12155;SDS011;6141;49.092;8.516;2023-06-22T06:35:44;14.30;;;8.60;;
12155;SDS011;6141;49.092;8.516;2023-06-22T06:38:13;9.10;;;7.33;;
12155;SDS011;6141;49.092;8.516;2023-06-22T06:40:41;10.50;;;8.17;;
12155;SDS011;6141;49.092;8.516;2023-06-22T06:43:12;10.00;;;7.90;;
12155;SDS011;6141;49.092;8.516;2023-06-22T06:45:40;9.00;;;7.67;;
12155;SDS011;6141;49.092;8.516;2023-06-22T06:48:08;9.33;;;6.90;;
12155;SDS011;6141;49.092;8.516;2023-06-22T06:50:36;9.73;;;7.60;;
12155;SDS011;6141;49.092;8.516;2023-06-22T06:53:04;9.17;;;8.07;;
12155;SDS011;6141;49.092;8.516;2023-06-22T06:55:32;11.27;;;7.33;;
12155;SDS011;6141;49.092;8.516;2023-06-22T06:58:01;10.30;;;6.97;;
12155;SDS011;6141;49.092;8.516;2023-06-22T07:00:32;8.90;;;7.20;;
12155;SDS011;6141;49.092;8.516;2023-06-22T07:03:00;8.37;;;6.93;;
12155;SDS011;6141;49.092;8.516;2023-06-22T07:05:30;9.20;;;7.17;;
12155;SDS011;6141;49.092;8.516;2023-06-22T07:07:58;9.63;;;7.60;;
12155;SDS011;6141;49.092;8.516;2023-06-22T07:10:26;9.17;;;7.20;;
12155;SDS011;6141;49.092;8.516;2023-06-22T07:12:56;9.93;;;6.50;;
12155;SDS011;6141;49.092;8.516;2023-06-22T07:15:24;9.40;;;7.43;;
12155;SDS011;6141;49.092;8.516;2023-06-22T07:17:54;8.53;;;6.80;;
12155;SDS011;6141;49.092;8.516;2023-06-22T07:20:22;7.60;;;6.80;;
12155;SDS011;6141;49.092;8.516;2023-06-22T07:22:51;7.30;;;6.30;;
12155;SDS011;6141;49.092;8.516;2023-06-22T07:25:19;9.83;;;7.10;;
12155;SDS011;6141;49.092;8.516;2023-06-22T07:27:56;8.67;;;6.23;;
12155;SDS011;6141;49.092;8.516;2023-06-22T07:30:25;10.00;;;6.60;;
12155;SDS011;6141;49.092;8.516;2023-06-22T07:32:56;8.00;;;6.03;;
12155;SDS011;6141;49.092;8.516;2023-06-22T07:35:24;6.50;;;5.90;;
12155;SDS011;6141;49.092;8.516;2023-06-22T07:37:52;6.73;;;5.90;;
12155;SDS011;6141;49.092;8.516;2023-06-22T07:40:22;7.33;;;6.30;;
12155;SDS011;6141;49.092;8.516;2023-06-22T07:42:52;8.00;;;6.33;;
12155;SDS011;6141;49.092;8.516;2023-06-22T07:45:20;13.43;;;6.40;;
12155;SDS011;6141;49.092;8.516;2023-06-22T07:47:49;9.23;;;5.77;;
12155;SDS011;6141;49.092;8.516;2023-06-22T07:50:18;8.93;;;6.10;;
12155;SDS011;6141;49.092;8.516;2023-06-22T07:52:46;7.67;;;5.83;;
12155;SDS011;6141;49.092;8.516;2023-06-22T07:55:14;9.27;;;6.27;;
12155;SDS011;6141;49.092;8.516;2023-06-22T07:57:42;6.13;;;5.40;;
12155;SDS011;6141;49.092;8.516;2023-06-22T08:00:11;7.27;;;5.87;;
12155;SDS011;6141;49.092;8.516;2023-06-22T08:02:42;6.57;;;5.70;;
12155;SDS011;6141;49.092;8.516;2023-06-22T08:05:13;6.77;;;5.93;;
12155;SDS011;6141;49.092;8.516;2023-06-22T08:07:49;6.83;;;5.43;;
12155;SDS011;6141;49.092;8.516;2023-06-22T08:10:18;8.40;;;5.90;;
12155;SDS011;6141;49.092;8.516;2023-06-22T08:12:47;6.57;;;5.90;;
12155;SDS011;6141;49.092;8.516;2023-06-22T08:15:15;7.30;;;6.07;;
12155;SDS011;6141;49.092;8.516;2023-06-22T08:17:43;5.37;;;4.70;;
12155;SDS011;6141;49.092;8.516;2023-06-22T08:20:12;6.70;;;4.97;;
12155;SDS011;6141;49.092;8.516;2023-06-22T08:22:41;6.53;;;5.10;;
12155;SDS011;6141;49.092;8.516;2023-06-22T08:25:11;7.95;;;5.30;;
12155;SDS011;6141;49.092;8.516;2023-06-22T08:27:40;6.10;;;5.50;;
12155;SDS011;6141;49.092;8.516;2023-06-22T08:30:12;6.73;;;5.50;;
12155;SDS011;6141;49.092;8.516;2023-06-22T08:32:41;6.20;;;5.18;;
12155;SDS011;6141;49.092;8.516;2023-06-22T08:35:11;7.23;;;5.23;;
12155;SDS011;6141;49.092;8.516;2023-06-22T08:37:39;5.22;;;4.65;;
12155;SDS011;6141;49.092;8.516;2023-06-22T08:40:08;7.35;;;5.07;;
12155;SDS011;6141;49.092;8.516;2023-06-22T08:42:39;5.57;;;4.65;;
12155;SDS011;6141;49.092;8.516;2023-06-22T08:45:08;6.83;;;5.70;;
12155;SDS011;6141;49.092;8.516;2023-06-22T08:47:39;8.18;;;5.53;;
12155;SDS011;6141;49.092;8.516;2023-06-22T08:50:08;7.27;;;5.20;;
12155;SDS011;6141;49.092;8.516;2023-06-22T08:52:36;7.63;;;4.73;;
12155;SDS011;6141;49.092;8.516;2023-06-22T08:55:08;4.97;;;4.33;;
12155;SDS011;6141;49.092;8.516;2023-06-22T08:57:36;6.85;;;4.25;;
12155;SDS011;6141;49.092;8.516;2023-06-22T09:00:07;6.53;;;4.88;;
12155;SDS011;6141;49.092;8.516;2023-06-22T09:02:43;6.28;;;4.85;;
12155;SDS011;6141;49.092;8.516;2023-06-22T09:05:13;7.53;;;4.73;;
12155;SDS011;6141;49.092;8.516;2023-06-22T09:07:41;7.40;;;5.03;;
12155;SDS011;6141;49.092;8.516;2023-06-22T09:10:09;6.80;;;4.77;;
12155;SDS011;6141;49.092;8.516;2023-06-22T09:12:38;5.32;;;4.78;;
12155;SDS011;6141;49.092;8.516;2023-06-22T09:15:09;6.65;;;4.53;;
12155;SDS011;6141;49.092;8.516;2023-06-22T09:17:42;9.05;;;4.50;;
12155;SDS011;6141;49.092;8.516;2023-06-22T09:20:11;7.10;;;4.72;;
12155;SDS011;6141;49.092;8.516;2023-06-22T09:22:39;6.47;;;4.80;;
12155;SDS011;6141;49.092;8.516;2023-06-22T09:25:07;5.10;;;4.33;;
12155;SDS011;6141;49.092;8.516;2023-06-22T09:27:36;7.30;;;4.88;;
12155;SDS011;6141;49.092;8.516;2023-06-22T09:30:06;5.68;;;4.93;;
12155;SDS011;6141;49.092;8.516;2023-06-22T09:32:37;9.32;;;5.15;;
12155;SDS011;6141;49.092;8.516;2023-06-22T09:35:06;5.75;;;4.43;;
12155;SDS011;6141;49.092;8.516;2023-06-22T09:37:37;9.27;;;4.70;;
12155;SDS011;6141;49.092;8.516;2023-06-22T09:40:05;6.55;;;4.75;;
12155;SDS011;6141;49.092;8.516;2023-06-22T09:42:37;7.68;;;4.78;;
12155;SDS011;6141;49.092;8.516;2023-06-22T09:45:06;6.70;;;4.40;;
12155;SDS011;6141;49.092;8.516;2023-06-22T09:47:35;9.02;;;4.40;;
12155;SDS011;6141;49.092;8.516;2023-06-22T09:50:06;7.57;;;4.68;;
12155;SDS011;6141;49.092;8.516;2023-06-22T09:52:34;8.10;;;4.90;;
12155;SDS011;6141;49.092;8.516;2023-06-22T09:55:06;6.63;;;4.60;;
12155;SDS011;6141;49.092;8.516;2023-06-22T09:57:41;9.95;;;5.43;;
12155;SDS011;6141;49.092;8.516;2023-06-22T10:00:10;6.30;;;4.45;;
12155;SDS011;6141;49.092;8.516;2023-06-22T10:02:40;5.68;;;4.55;;
12155;SDS011;6141;49.092;8.516;2023-06-22T10:05:10;7.85;;;4.57;;
12155;SDS011;6141;49.092;8.516;2023-06-22T10:07:39;10.00;;;4.80;;
12155;SDS011;6141;49.092;8.516;2023-06-22T10:10:11;9.48;;;6.07;;
12155;SDS011;6141;49.092;8.516;2023-06-22T10:12:41;5.93;;;4.80;;
12155;SDS011;6141;49.092;8.516;2023-06-22T10:15:11;7.85;;;4.90;;
12155;SDS011;6141;49.092;8.516;2023-06-22T10:17:39;7.03;;;4.63;;
12155;SDS011;6141;49.092;8.516;2023-06-22T10:20:08;9.90;;;5.32;;
12155;SDS011;6141;49.092;8.516;2023-06-22T10:22:44;7.00;;;4.53;;
12155;SDS011;6141;49.092;8.516;2023-06-22T10:25:12;10.13;;;5.03;;
12155;SDS011;6141;49.092;8.516;2023-06-22T10:27:41;6.80;;;4.88;;
12155;SDS011;6141;49.092;8.516;2023-06-22T10:30:09;8.38;;;5.00;;
12155;SDS011;6141;49.092;8.516;2023-06-22T10:32:40;8.63;;;5.28;;
12155;SDS011;6141;49.092;8.516;2023-06-22T10:35:11;7.53;;;4.80;;
12155;SDS011;6141;49.092;8.516;2023-06-22T10:37:43;5.25;;;4.70;;
12155;SDS011;6141;49.092;8.516;2023-06-22T10:40:12;5.90;;;4.72;;
12155;SDS011;6141;49.092;8.516;2023-06-22T10:42:41;7.55;;;5.07;;
12155;SDS011;6141;49.092;8.516;2023-06-22T10:45:10;9.38;;;5.32;;
12155;SDS011;6141;49.092;8.516;2023-06-22T10:47:38;7.35;;;4.78;;
12155;SDS011;6141;49.092;8.516;2023-06-22T10:50:08;6.65;;;5.05;;
12155;SDS011;6141;49.092;8.516;2023-06-22T10:52:38;7.10;;;4.95;;
12155;SDS011;6141;49.092;8.516;2023-06-22T10:55:08;8.32;;;4.90;;
12155;SDS011;6141;49.092;8.516;2023-06-22T10:57:37;8.30;;;5.25;;
12155;SDS011;6141;49.092;8.516;2023-06-22T11:00:11;7.18;;;4.97;;
12155;SDS011;6141;49.092;8.516;2023-06-22T11:02:40;7.78;;;5.32;;
12155;SDS011;6141;49.092;8.516;2023-06-22T11:05:10;9.80;;;4.97;;
12155;SDS011;6141;49.092;8.516;2023-06-22T11:07:45;8.85;;;5.28;;
12155;SDS011;6141;49.092;8.516;2023-06-22T11:10:14;6.85;;;4.78;;
12155;SDS011;6141;49.092;8.516;2023-06-22T11:12:42;9.10;;;4.95;;
12155;SDS011;6141;49.092;8.516;2023-06-22T11:15:12;11.32;;;5.32;;
12155;SDS011;6141;49.092;8.516;2023-06-22T11:17:40;8.35;;;5.30;;
12155;SDS011;6141;49.092;8.516;2023-06-22T11:20:08;7.30;;;5.05;;
12155;SDS011;6141;49.092;8.516;2023-06-22T11:22:37;8.68;;;5.20;;
12155;SDS011;6141;49.092;8.516;2023-06-22T11:25:08;10.13;;;5.10;;
12155;SDS011;6141;49.092;8.516;2023-06-22T11:27:37;7.03;;;5.40;;
12155;SDS011;6141;49.092;8.516;2023-06-22T11:30:06;8.60;;;4.93;;
12155;SDS011;6141;49.092;8.516;2023-06-22T11:32:35;7.75;;;5.10;;
12155;SDS011;6141;49.092;8.516;2023-06-22T11:35:03;11.52;;;5.20;;
12155;SDS011;6141;49.092;8.516;2023-06-22T11:37:31;12.30;;;5.32;;
12155;SDS011;6141;49.092;8.516;2023-06-22T11:39:59;8.27;;;5.18;;
12155;SDS011;6141;49.092;8.516;2023-06-22T11:42:34;8.68;;;4.95;;
12155;SDS011;6141;49.092;8.516;2023-06-22T11:45:04;8.85;;;5.40;;
12155;SDS011;6141;49.092;8.516;2023-06-22T11:47:33;6.32;;;4.72;;
12155;SDS011;6141;49.092;8.516;2023-06-22T11:50:02;8.70;;;5.25;;
12155;SDS011;6141;49.092;8.516;2023-06-22T11:52:31;6.55;;;4.80;;
12155;SDS011;6141;49.092;8.516;2023-06-22T11:55:02;11.10;;;5.95;;
12155;SDS011;6141;49.092;8.516;2023-06-22T11:57:32;7.82;;;5.05;;
12155;SDS011;6141;49.092;8.516;2023-06-22T12:00:03;7.18;;;5.65;;
12155;SDS011;6141;49.092;8.516;2023-06-22T12:02:42;7.55;;;5.10;;
12155;SDS011;6141;49.092;8.516;2023-06-22T12:05:11;5.78;;;4.85;;
12155;SDS011;6141;49.092;8.516;2023-06-22T12:07:40;7.57;;;5.53;;
12155;SDS011;6141;49.092;8.516;2023-06-22T12:10:09;6.57;;;5.05;;
12155;SDS011;6141;49.092;8.516;2023-06-22T12:12:38;8.13;;;5.47;;
12155;SDS011;6141;49.092;8.516;2023-06-22T12:15:07;9.98;;;5.20;;
12155;SDS011;6141;49.092;8.516;2023-06-22T12:17:36;7.53;;;5.15;;
12155;SDS011;6141;49.092;8.516;2023-06-22T12:20:05;7.57;;;5.45;;
12155;SDS011;6141;49.092;8.516;2023-06-22T12:22:34;7.07;;;5.28;;
12155;SDS011;6141;49.092;8.516;2023-06-22T12:25:04;8.80;;;5.38;;
12155;SDS011;6141;49.092;8.516;2023-06-22T12:27:36;9.02;;;6.03;;
12155;SDS011;6141;49.092;8.516;2023-06-22T12:30:06;6.45;;;5.10;;
12155;SDS011;6141;49.092;8.516;2023-06-22T12:32:38;8.80;;;5.25;;
12155;SDS011;6141;49.092;8.516;2023-06-22T12:35:06;11.80;;;5.47;;
12155;SDS011;6141;49.092;8.516;2023-06-22T12:37:40;10.65;;;5.82;;
12155;SDS011;6141;49.092;8.516;2023-06-22T12:40:09;10.13;;;5.40;;
12155;SDS011;6141;49.092;8.516;2023-06-22T12:42:39;8.68;;;5.95;;
12155;SDS011;6141;49.092;8.516;2023-06-22T12:45:11;11.43;;;5.35;;
12155;SDS011;6141;49.092;8.516;2023-06-22T12:47:42;6.68;;;5.30;;
12155;SDS011;6141;49.092;8.516;2023-06-22T12:50:10;7.57;;;5.38;;
12155;SDS011;6141;49.092;8.516;2023-06-22T12:52:39;8.98;;;4.97;;
12155;SDS011;6141;49.092;8.516;2023-06-22T12:55:07;6.93;;;5.57;;
12155;SDS011;6141;49.092;8.516;2023-06-22T12:57:36;5.63;;;5.00;;
12155;SDS011;6141;49.092;8.516;2023-06-22T13:00:04;7.30;;;5.45;;
12155;SDS011;6141;49.092;8.516;2023-06-22T13:02:38;7.75;;;5.40;;
12155;SDS011;6141;49.092;8.516;2023-06-22T13:05:07;7.57;;;5.93;;
12155;SDS011;6141;49.092;8.516;2023-06-22T13:07:36;9.20;;;5.35;;
12155;SDS011;6141;49.092;8.516;2023-06-22T13:10:04;11.20;;;5.43;;
12155;SDS011;6141;49.092;8.516;2023-06-22T13:12:33;10.90;;;5.30;;
12155;SDS011;6141;49.092;8.516;2023-06-22T13:15:01;7.95;;;5.25;;
12155;SDS011;6141;49.092;8.516;2023-06-22T13:17:31;8.52;;;5.45;;
12155;SDS011;6141;49.092;8.516;2023-06-22T13:20:05;8.15;;;5.50;;
12155;SDS011;6141;49.092;8.516;2023-06-22T13:22:35;10.07;;;5.75;;
12155;SDS011;6141;49.092;8.516;2023-06-22T13:25:08;6.15;;;5.03;;
12155;SDS011;6141;49.092;8.516;2023-06-22T13:27:39;7.93;;;6.38;;
12155;SDS011;6141;49.092;8.516;2023-06-22T13:30:07;9.73;;;5.95;;
12155;SDS011;6141;49.092;8.516;2023-06-22T13:32:39;7.70;;;5.78;;
12155;SDS011;6141;49.092;8.516;2023-06-22T13:35:11;6.93;;;5.45;;
12155;SDS011;6141;49.092;8.516;2023-06-22T13:37:39;6.70;;;5.57;;
12155;SDS011;6141;49.092;8.516;2023-06-22T13:40:08;12.18;;;5.97;;
12155;SDS011;6141;49.092;8.516;2023-06-22T13:42:36;11.43;;;6.30;;
12155;SDS011;6141;49.092;8.516;2023-06-22T13:45:06;9.45;;;5.40;;
12155;SDS011;6141;49.092;8.516;2023-06-22T13:47:35;11.02;;;6.15;;
12155;SDS011;6141;49.092;8.516;2023-06-22T13:50:04;11.82;;;6.25;;
12155;SDS011;6141;49.092;8.516;2023-06-22T13:52:34;7.65;;;6.00;;
12155;SDS011;6141;49.092;8.516;2023-06-22T13:55:02;6.68;;;5.43;;
12155;SDS011;6141;49.092;8.516;2023-06-22T13:57:32;8.60;;;6.55;;
12155;SDS011;6141;49.092;8.516;2023-06-22T14:00:01;11.88;;;5.78;;
12155;SDS011;6141;49.092;8.516;2023-06-22T14:02:39;7.25;;;5.60;;
12155;SDS011;6141;49.092;8.516;2023-06-22T14:05:08;9.55;;;5.65;;
12155;SDS011;6141;49.092;8.516;2023-06-22T14:07:38;9.95;;;6.03;;
12155;SDS011;6141;49.092;8.516;2023-06-22T14:10:07;13.45;;;6.32;;
12155;SDS011;6141;49.092;8.516;2023-06-22T14:12:35;13.10;;;6.35;;
12155;SDS011;6141;49.092;8.516;2023-06-22T14:15:03;9.73;;;5.95;;
12155;SDS011;6141;49.092;8.516;2023-06-22T14:17:32;7.22;;;5.25;;
12155;SDS011;6141;49.092;8.516;2023-06-22T14:20:00;8.07;;;5.78;;
12155;SDS011;6141;49.092;8.516;2023-06-22T14:22:29;13.90;;;5.78;;
12155;SDS011;6141;49.092;8.516;2023-06-22T14:24:58;9.48;;;6.18;;
12155;SDS011;6141;49.092;8.516;2023-06-22T14:27:27;11.48;;;6.15;;
12155;SDS011;6141;49.092;8.516;2023-06-22T14:29:55;8.82;;;6.22;;
12155;SDS011;6141;49.092;8.516;2023-06-22T14:32:23;10.38;;;5.75;;
12155;SDS011;6141;49.092;8.516;2023-06-22T14:34:52;8.45;;;5.60;;
12155;SDS011;6141;49.092;8.516;2023-06-22T14:37:20;12.93;;;5.72;;
12155;SDS011;6141;49.092;8.516;2023-06-22T14:39:48;9.98;;;5.72;;
12155;SDS011;6141;49.092;8.516;2023-06-22T14:42:18;9.27;;;5.80;;
12155;SDS011;6141;49.092;8.516;2023-06-22T14:44:46;11.63;;;6.10;;
12155;SDS011;6141;49.092;8.516;2023-06-22T14:47:15;12.48;;;6.30;;
12155;SDS011;6141;49.092;8.516;2023-06-22T14:49:44;13.88;;;5.93;;
12155;SDS011;6141;49.092;8.516;2023-06-22T14:52:14;10.82;;;5.93;;
12155;SDS011;6141;49.092;8.516;2023-06-22T14:54:42;9.70;;;5.20;;
12155;SDS011;6141;49.092;8.516;2023-06-22T14:57:12;12.63;;;5.57;;
12155;SDS011;6141;49.092;8.516;2023-06-22T14:59:45;11.57;;;5.95;;
12155;SDS011;6141;49.092;8.516;2023-06-22T15:02:15;10.40;;;6.05;;
12155;SDS011;6141;49.092;8.516;2023-06-22T15:04:43;10.95;;;5.55;;
12155;SDS011;6141;49.092;8.516;2023-06-22T15:07:13;11.70;;;5.97;;
12155;SDS011;6141;49.092;8.516;2023-06-22T15:09:41;11.07;;;5.80;;
12155;SDS011;6141;49.092;8.516;2023-06-22T15:12:11;11.63;;;5.90;;